| time (UTC) | temp F | wind direction | speed MPH | gust MPH | rain 1hr in | rain 24hr in | rain mn in | humidity % | barometer mb |
| 20260901225941 | 68 | 315 | 2.0 | 6.0 | 0.00 | 0.00 | 0.00 | 74 | 1017.8 |
| 20260901224441 | 69 | 292 | 3.0 | 4.0 | 0.00 | 0.00 | 0.00 | 71 | 1018.0 |
| 20260901223837 | 70 | 292 | 3.0 | 4.0 | 0.00 | 0.00 | 0.00 | 69 | 1017.9 |
| 20260901222338 | 72 | 315 | 3.0 | 6.0 | 0.00 | 0.00 | 0.00 | 66 | 1017.9 |
| 20260901220839 | 72 | 315 | 5.0 | 10.0 | 0.00 | 0.00 | 0.00 | 65 | 1017.8 |
| 20260901215338 | 72 | 315 | 5.0 | 9.0 | 0.00 | 0.00 | 0.00 | 67 | 1017.8 |
| 20260901213838 | 72 | 338 | 5.0 | 11.0 | 0.00 | 0.00 | 0.00 | 68 | 1017.7 |
| 20260901212337 | 71 | 315 | 5.0 | 6.0 | 0.00 | 0.00 | 0.00 | 69 | 1017.6 |
| 20260901210837 | 72 | 338 | 3.0 | 6.0 | 0.00 | 0.00 | 0.00 | 68 | 1017.5 |
| 20260901205338 | 73 | 315 | 5.0 | 9.0 | 0.00 | 0.00 | 0.00 | 67 | 1017.6 |
| 20260901203836 | 73 | 292 | 6.0 | 12.0 | 0.00 | 0.00 | 0.00 | 66 | 1017.2 |
| 20260901202338 | 74 | 292 | 9.0 | 15.0 | 0.00 | 0.00 | 0.00 | 65 | 1017.1 |
| 20260901200837 | 75 | 315 | 6.0 | 11.0 | 0.00 | 0.00 | 0.00 | 61 | 1017.0 |
| 20260901195338 | 76 | 315 | 5.0 | 8.0 | 0.00 | 0.00 | 0.00 | 55 | 1016.9 |
| 20260901193836 | 78 | 315 | 5.0 | 8.0 | 0.00 | 0.00 | 0.00 | 49 | 1016.3 |
| 20260901192336 | 79 | 270 | 3.0 | 8.0 | 0.00 | 0.00 | 0.00 | 45 | 1016.3 |
| 20260901190836 | 80 | 315 | 5.0 | 8.0 | 0.00 | 0.00 | 0.00 | 42 | 1016.1 |
| 20260901185336 | 82 | 270 | 3.0 | 6.0 | 0.00 | 0.00 | 0.00 | 40 | 1016.3 |
| 20260901183837 | 84 | 248 | 1.0 | 3.0 | 0.00 | 0.00 | 0.00 | 38 | 1015.9 |
| 20260901182337 | 86 | 270 | 0.0 | 3.0 | 0.00 | 0.00 | 0.00 | 35 | 1016.1 |
| 20260901180836 | 87 | 202 | 1.0 | 2.0 | 0.00 | 0.00 | 0.00 | 33 | 1015.7 |
| 20260901175336 | 87 | 202 | 0.0 | 2.0 | 0.00 | 0.00 | 0.00 | 31 | 1016.0 |
| 20260901173836 | 88 | 248 | 0.0 | 3.0 | 0.00 | 0.00 | 0.00 | 30 | 1015.9 |
| 20260901172337 | 89 | 270 | 0.0 | 4.0 | 0.00 | 0.00 | 0.00 | 29 | 1015.8 |
| 20260901170835 | 88 | 292 | 0.0 | 3.0 | 0.00 | 0.00 | 0.00 | 29 | 1015.8 |
| 20260901165337 | 87 | 292 | 3.0 | 4.0 | 0.00 | 0.00 | 0.00 | 30 | 1015.7 |
| 20260901163837 | 88 | 270 | 1.0 | 4.0 | 0.00 | 0.00 | 0.00 | 27 | 1015.8 |
| 20260901162335 | 89 | 270 | 2.0 | 4.0 | 0.00 | 0.00 | 0.00 | 26 | 1015.6 |
| 20260901160836 | 88 | 202 | 2.0 | 4.0 | 0.00 | 0.00 | 0.00 | 25 | 1015.9 |
| 20260901155337 | 87 | 158 | 1.0 | 6.0 | 0.00 | 0.00 | 0.00 | 23 | 1015.8 |
| 20260901153835 | 88 | 158 | 2.0 | 6.0 | 0.00 | 0.00 | 0.00 | 21 | 1016.0 |
| 20260901152336 | 87 | 90 | 3.0 | 6.0 | 0.00 | 0.00 | 0.00 | 22 | 1016.2 |
| 20260901150836 | 86 | 158 | 4.0 | 8.0 | 0.00 | 0.00 | 0.00 | 23 | 1016.0 |
| 20260901145335 | 88 | 202 | 1.0 | 6.0 | 0.00 | 0.00 | 0.00 | 25 | 1016.3 |
| 20260901143835 | 85 | 135 | 3.0 | 9.0 | 0.00 | 0.00 | 0.00 | 28 | 1016.3 |
| 20260901142336 | 85 | 158 | 4.0 | 6.0 | 0.00 | 0.00 | 0.00 | 28 | 1016.4 |
| 20260901140835 | 85 | 158 | 2.0 | 6.0 | 0.00 | 0.00 | 0.00 | 29 | 1016.4 |
| 20260901135336 | 84 | 90 | 3.0 | 8.0 | 0.00 | 0.00 | 0.00 | 25 | 1016.5 |
| 20260901133835 | 85 | 248 | 4.0 | 9.0 | 0.00 | 0.00 | 0.00 | 28 | 1016.7 |
| 20260901132336 | 85 | 180 | 3.0 | 9.0 | 0.00 | 0.00 | 0.00 | 28 | 1016.6 |
| 20260901130836 | 85 | 248 | 0.0 | 4.0 | 0.00 | 0.00 | 0.00 | 27 | 1016.7 |
| 20260901125334 | 85 | 135 | 1.0 | 4.0 | 0.00 | 0.00 | 0.00 | 29 | 1016.9 |
| 20260901123834 | 83 | 158 | 2.0 | 6.0 | 0.00 | 0.00 | 0.00 | 34 | 1016.8 |
| 20260901122334 | 81 | 135 | 3.0 | 6.0 | 0.00 | 0.00 | 0.00 | 41 | 1016.8 |
| 20260901120835 | 78 | 180 | 3.0 | 8.0 | 0.00 | 0.00 | 0.00 | 45 | 1017.1 |
| 20260901115335 | 79 | 158 | 0.0 | 3.0 | 0.00 | 0.00 | 0.00 | 45 | 1017.2 |
| 20260901113834 | 81 | 112 | 0.0 | 4.0 | 0.00 | 0.00 | 0.00 | 45 | 1017.1 |
| 20260901112334 | 80 | 292 | 0.0 | 6.0 | 0.00 | 0.00 | 0.00 | 47 | 1017.2 |
| 20260901110834 | 80 | 180 | 1.0 | 6.0 | 0.00 | 0.00 | 0.00 | 47 | 1017.3 |
| 20260901105334 | 79 | 90 | 2.0 | 6.0 | 0.00 | 0.00 | 0.00 | 46 | 1017.3 |
| 20260901103835 | 77 | 22 | 0.0 | 4.0 | 0.00 | 0.00 | 0.00 | 47 | 1017.4 |
| 20260901102333 | 77 | 135 | 3.0 | 6.0 | 0.00 | 0.00 | 0.00 | 47 | 1017.2 |
| 20260901100833 | 78 | 180 | 0.0 | 3.0 | 0.00 | 0.00 | 0.00 | 48 | 1017.4 |
| 20260901095335 | 75 | 338 | 2.0 | 3.0 | 0.00 | 0.00 | 0.00 | 52 | 1017.2 |
| 20260901093834 | 74 | 315 | 0.0 | 1.0 | 0.00 | 0.00 | 0.00 | 54 | 1017.2 |
| 20260901092334 | 72 | 360 | 0.0 | 3.0 | 0.00 | 0.00 | 0.00 | 57 | 1017.1 |
| 20260901090834 | 72 | 45 | 0.0 | 4.0 | 0.00 | 0.00 | 0.00 | 57 | 1017.1 |
| 20260901085334 | 71 | 292 | 1.0 | 6.0 | 0.00 | 0.00 | 0.00 | 60 | 1017.0 |
| 20260901083834 | 71 | 315 | 2.0 | 3.0 | 0.00 | 0.00 | 0.00 | 60 | 1016.8 |
| 20260901082333 | 73 | 338 | 0.0 | 2.0 | 0.00 | 0.00 | 0.00 | 59 | 1016.7 |
| 20260901080834 | 71 | 112 | 1.0 | 2.0 | 0.00 | 0.00 | 0.00 | 63 | 1016.9 |
| 20260901075333 | 68 | 202 | 0.0 | 2.0 | 0.00 | 0.00 | 0.00 | 68 | 1016.4 |
| 20260901073833 | 70 | 202 | 0.0 | 2.0 | 0.00 | 0.00 | 0.00 | 60 | 1016.7 |
| 20260901072334 | 68 | 270 | 0.0 | 3.0 | 0.00 | 0.00 | 0.00 | 63 | 1016.7 |
| 20260901070834 | 66 | 202 | 1.0 | 3.0 | 0.00 | 0.00 | 0.00 | 65 | 1016.5 |
| 20260901065334 | 65 | 202 | 1.0 | 3.0 | 0.00 | 0.00 | 0.00 | 68 | 1016.2 |
| 20260901063832 | 63 | 202 | 0.0 | 2.0 | 0.00 | 0.00 | 0.00 | 73 | 1016.1 |
| 20260901062333 | 61 | 225 | 0.0 | 2.0 | 0.00 | 0.00 | 0.00 | 78 | 1016.1 |
| 20260901060833 | 60 | 202 | 0.0 | 3.0 | 0.00 | 0.00 | 0.00 | 80 | 1016.0 |
| 20260901055334 | 60 | 202 | 0.0 | 3.0 | 0.00 | 0.00 | 0.00 | 78 | 1015.8 |
| 20260901055020 | 60 | 158 | 0.0 | 2.0 | 0.00 | 0.00 | 0.00 | 77 | 1015.9 |
| 20260901053519 | 62 | 270 | 1.0 | 2.0 | 0.00 | 0.00 | 0.00 | 70 | 1015.8 |
| 20260901052018 | 64 | 292 | 0.0 | 1.0 | 0.00 | 0.00 | 0.00 | 68 | 1015.5 |
| 20260901050519 | 64 | 292 | 0.0 | 3.0 | 0.00 | 0.00 | 0.00 | 67 | 1015.7 |
| 20260901045019 | 65 | 292 | 2.0 | 3.0 | 0.00 | 0.00 | 0.00 | 66 | 1015.6 |
| 20260901043520 | 65 | 292 | 3.0 | 6.0 | 0.00 | 0.00 | 0.00 | 65 | 1015.4 |
| 20260901042019 | 65 | 315 | 3.0 | 4.0 | 0.00 | 0.00 | 0.00 | 66 | 1015.5 |
| 20260901040518 | 65 | 315 | 3.0 | 6.0 | 0.00 | 0.00 | 0.00 | 65 | 1015.5 |
| 20260901035019 | 65 | 292 | 4.0 | 6.0 | 0.00 | 0.00 | 0.00 | 67 | 1015.7 |
| 20260901033519 | 61 | 292 | 3.0 | 4.0 | 0.00 | 0.00 | 0.00 | 78 | 1015.7 |
| 20260901032017 | 62 | 292 | 3.0 | 4.0 | 0.00 | 0.00 | 0.00 | 75 | 1015.7 |
| 20260901030519 | 63 | 292 | 3.0 | 4.0 | 0.00 | 0.00 | 0.00 | 72 | 1015.6 |
| 20260901025017 | 62 | 292 | 3.0 | 6.0 | 0.00 | 0.00 | 0.00 | 78 | 1015.8 |
| 20260901023518 | 62 | 315 | 3.0 | 6.0 | 0.00 | 0.00 | 0.00 | 77 | 1015.8 |
| 20260901022019 | 62 | 315 | 3.0 | 6.0 | 0.00 | 0.00 | 0.00 | 78 | 1016.0 |
| 20260901020519 | 62 | 315 | 3.0 | 6.0 | 0.00 | 0.00 | 0.00 | 77 | 1016.0 |
| 20260901015017 | 64 | 315 | 2.0 | 6.0 | 0.00 | 0.00 | 0.00 | 72 | 1016.0 |
| 20260901013518 | 64 | 315 | 1.0 | 3.0 | 0.00 | 0.00 | 0.00 | 70 | 1016.0 |
| 20260901012017 | 67 | 292 | 3.0 | 4.0 | 0.00 | 0.00 | 0.00 | 62 | 1016.2 |
| 20260901010518 | 67 | 292 | 3.0 | 3.0 | 0.00 | 0.00 | 0.00 | 63 | 1016.4 |
| 20260901005018 | 65 | 292 | 3.0 | 4.0 | 0.00 | 0.00 | 0.00 | 69 | 1016.5 |
| 20260901003516 | 66 | 292 | 3.0 | 6.0 | 0.00 | 0.00 | 0.00 | 66 | 1016.6 |
| 20260901002017 | 65 | 315 | 3.0 | 6.0 | 0.00 | 0.00 | 0.00 | 68 | 1016.6 |
| 20260901000517 | 67 | 292 | 2.0 | 6.0 | 0.00 | 0.00 | 0.00 | 66 | 1016.5 |
| 20260831235018 | 66 | 315 | 2.0 | 6.0 | 0.00 | 0.00 | 0.00 | 68 | 1016.5 |
| 20260831233517 | 65 | 315 | 4.0 | 8.0 | 0.00 | 0.00 | 0.00 | 72 | 1016.8 |
| 20260831232017 | 65 | 315 | 3.0 | 6.0 | 0.00 | 0.00 | 0.00 | 71 | 1016.5 |
| 20260831230517 | 66 | 315 | 3.0 | 6.0 | 0.00 | 0.00 | 0.00 | 70 | 1016.6 |